createdAt,value
2019-03-31T00:00:38.187Z,47.00
2019-03-31T00:01:38.211Z,47.60
2019-03-31T00:02:38.196Z,48.10
2019-03-31T00:03:38.185Z,47.40
2019-03-31T00:04:38.152Z,47.80
2019-03-31T00:05:38.143Z,48.10
2019-03-31T00:06:38.149Z,47.50
2019-03-31T00:07:38.185Z,49.40
2019-03-31T00:08:38.108Z,48.60
2019-03-31T00:09:38.108Z,48.90
2019-03-31T00:10:38.085Z,47.80
2019-03-31T00:11:38.078Z,47.60
2019-03-31T00:12:38.093Z,48.50
2019-03-31T00:13:38.081Z,47.40
2019-03-31T00:14:38.037Z,47.80
2019-03-31T00:15:38.070Z,48.60
2019-03-31T00:16:38.017Z,47.70
2019-03-31T00:17:39.039Z,49.90
2019-03-31T00:18:39.034Z,49.90
2019-03-31T00:19:39.044Z,48.60
2019-03-31T00:20:39.551Z,48.80
2019-03-31T00:21:38.537Z,49.60
2019-03-31T00:22:39.029Z,50.20
2019-03-31T00:23:37.942Z,49.80
2019-03-31T00:24:37.933Z,50.60
2019-03-31T00:25:37.919Z,50.70
2019-03-31T00:26:37.909Z,50.80
2019-03-31T00:27:37.924Z,50.70
2019-03-31T00:28:37.894Z,50.80
2019-03-31T00:29:37.879Z,52.70
2019-03-31T00:30:37.870Z,52.10
2019-03-31T00:31:37.855Z,52.10
2019-03-31T00:32:37.868Z,53.10
2019-03-31T00:33:37.843Z,53.70
2019-03-31T00:34:37.827Z,54.00
2019-03-31T00:35:37.825Z,54.40
2019-03-31T00:36:37.794Z,53.60
2019-03-31T00:37:37.828Z,52.80
2019-03-31T00:38:37.780Z,53.10
2019-03-31T00:39:37.789Z,52.60
2019-03-31T00:40:37.756Z,54.80
2019-03-31T00:41:37.750Z,54.30
2019-03-31T00:42:37.770Z,54.40
2019-03-31T00:43:37.764Z,53.70
2019-03-31T00:44:37.716Z,54.60
2019-03-31T00:45:37.707Z,55.00
2019-03-31T00:46:37.699Z,54.30
2019-03-31T00:47:37.714Z,57.20
2019-03-31T00:48:37.670Z,54.80
2019-03-31T00:49:37.660Z,55.30
2019-03-31T00:50:37.652Z,54.80
2019-03-31T00:51:37.658Z,55.50
2019-03-31T00:52:37.651Z,55.10
2019-03-31T00:53:37.621Z,54.70
2019-03-31T00:54:37.610Z,57.20
2019-03-31T00:55:37.603Z,55.30
2019-03-31T00:56:37.581Z,58.10
2019-03-31T00:57:37.595Z,55.50
2019-03-31T00:58:37.564Z,56.10
2019-03-31T00:59:37.546Z,59.30
2019-03-31T01:00:37.544Z,59.20
2019-03-31T01:01:37.539Z,58.70
2019-03-31T01:02:37.587Z,57.00
2019-03-31T01:03:37.512Z,56.50
2019-03-31T01:04:37.502Z,60.10
2019-03-31T01:05:37.479Z,58.40
2019-03-31T01:06:37.469Z,59.40
2019-03-31T01:07:37.525Z,60.10
2019-03-31T01:08:37.456Z,59.20
2019-03-31T01:09:37.446Z,60.50
2019-03-31T01:10:37.436Z,59.60
2019-03-31T01:11:37.416Z,60.70
2019-03-31T01:12:37.439Z,61.50
2019-03-31T01:13:37.405Z,63.40
2019-03-31T01:14:37.399Z,62.20
2019-03-31T01:15:37.377Z,63.40
2019-03-31T01:16:37.366Z,63.10
2019-03-31T01:17:37.395Z,65.40
2019-03-31T01:18:37.340Z,63.40
2019-03-31T01:19:37.400Z,64.00
2019-03-31T01:20:37.328Z,66.60
2019-03-31T01:21:37.317Z,62.70
2019-03-31T01:22:37.334Z,63.00
2019-03-31T01:23:37.292Z,63.10
2019-03-31T01:24:37.273Z,65.00
2019-03-31T01:25:37.262Z,66.00
2019-03-31T01:26:37.257Z,64.60
2019-03-31T01:27:37.282Z,63.10
2019-03-31T01:28:37.238Z,61.70
2019-03-31T01:29:37.225Z,63.90
2019-03-31T01:30:37.204Z,64.60
2019-03-31T01:31:49.606Z,65.10
2019-03-31T01:32:38.216Z,63.90
2019-03-31T01:33:37.177Z,65.60
2019-03-31T01:34:37.167Z,64.70
2019-03-31T01:35:37.156Z,65.40
2019-03-31T01:36:37.142Z,65.00
2019-03-31T01:37:37.163Z,66.80
2019-03-31T01:38:37.129Z,66.70
2019-03-31T01:39:37.107Z,64.40
2019-03-31T01:40:37.114Z,67.30
2019-03-31T01:41:37.087Z,65.30
2019-03-31T01:42:37.104Z,65.90
2019-03-31T01:43:37.080Z,65.60
2019-03-31T01:44:37.052Z,66.30
2019-03-31T01:45:37.063Z,66.90
2019-03-31T01:46:37.045Z,66.00
2019-03-31T01:47:37.022Z,67.70
2019-03-31T01:48:37.036Z,67.30
2019-03-31T01:49:37.001Z,67.10
2019-03-31T01:50:36.988Z,65.80
2019-03-31T01:51:36.983Z,69.50
2019-03-31T01:52:36.967Z,67.80
2019-03-31T01:53:36.997Z,67.90
2019-03-31T01:54:36.951Z,68.70
2019-03-31T01:55:36.938Z,67.20
2019-03-31T01:56:36.925Z,67.30
2019-03-31T01:57:36.919Z,67.70
2019-03-31T01:58:36.942Z,68.00
2019-03-31T01:59:36.905Z,66.20
2019-03-31T02:00:36.888Z,67.60
2019-03-31T02:01:36.884Z,67.00
2019-03-31T02:02:36.864Z,65.80
2019-03-31T02:03:36.880Z,68.10
2019-03-31T02:04:36.834Z,66.70
2019-03-31T02:05:36.828Z,67.40
2019-03-31T02:06:36.825Z,66.20
2019-03-31T02:07:36.808Z,70.50
2019-03-31T02:08:36.829Z,68.70
2019-03-31T02:09:36.785Z,68.90
2019-03-31T02:10:36.782Z,66.90
2019-03-31T02:11:36.769Z,67.90
2019-03-31T02:12:36.758Z,68.60
2019-03-31T02:13:36.781Z,69.70
2019-03-31T02:14:36.732Z,68.10
2019-03-31T02:15:36.717Z,68.90
2019-03-31T02:16:36.702Z,69.40
2019-03-31T02:17:36.702Z,68.60
2019-03-31T02:18:36.715Z,69.50
2019-03-31T02:19:36.670Z,67.70
2019-03-31T02:20:36.665Z,67.40
2019-03-31T02:21:36.646Z,68.10
2019-03-31T02:22:36.642Z,67.20
2019-03-31T02:23:36.655Z,66.50
2019-03-31T02:24:36.628Z,66.40
2019-03-31T02:25:36.608Z,67.90
2019-03-31T02:26:36.595Z,67.20
2019-03-31T02:27:36.587Z,67.40
2019-03-31T02:28:36.614Z,67.90
2019-03-31T02:29:36.569Z,66.40
2019-03-31T02:30:36.554Z,68.40
2019-03-31T02:31:36.545Z,65.70
2019-03-31T02:32:36.529Z,72.00
2019-03-31T02:33:36.553Z,67.20
2019-03-31T02:34:36.526Z,66.10
2019-03-31T02:35:36.511Z,67.30
2019-03-31T02:36:36.489Z,66.80
2019-03-31T02:37:36.483Z,69.30
2019-03-31T02:38:36.500Z,68.10
2019-03-31T02:39:36.466Z,67.40
2019-03-31T02:40:36.452Z,67.00
2019-03-31T02:41:36.444Z,68.50
2019-03-31T02:42:36.427Z,68.30
2019-03-31T02:43:36.440Z,67.70
2019-03-31T02:44:36.405Z,67.00
2019-03-31T02:45:36.396Z,68.00
2019-03-31T02:46:36.392Z,69.10
2019-03-31T02:47:36.385Z,68.40
2019-03-31T02:48:36.403Z,69.90
2019-03-31T02:49:36.351Z,67.20
2019-03-31T02:50:36.344Z,66.50
2019-03-31T02:51:36.331Z,66.60
2019-03-31T02:52:36.339Z,63.90
2019-03-31T02:53:36.338Z,66.20
2019-03-31T02:54:36.307Z,65.90
2019-03-31T02:55:36.304Z,67.30
2019-03-31T02:56:36.275Z,65.10
2019-03-31T02:57:36.275Z,66.40
2019-03-31T02:58:36.286Z,69.30
2019-03-31T02:59:36.242Z,65.30
2019-03-31T03:00:36.235Z,66.20
2019-03-31T03:01:36.221Z,67.10
2019-03-31T03:02:42.195Z,67.10
2019-03-31T03:03:37.233Z,70.10
2019-03-31T03:04:36.182Z,69.00
2019-03-31T03:05:36.172Z,67.30
2019-03-31T03:06:36.164Z,67.80
2019-03-31T03:07:36.158Z,67.00
2019-03-31T03:08:36.140Z,67.30
2019-03-31T03:09:36.162Z,67.00
2019-03-31T03:10:36.122Z,71.80
2019-03-31T03:11:36.108Z,66.60
2019-03-31T03:12:36.102Z,69.90
2019-03-31T03:13:36.097Z,68.50
2019-03-31T03:14:36.099Z,69.00
2019-03-31T03:15:36.075Z,66.20
2019-03-31T03:16:36.049Z,67.50
2019-03-31T03:17:36.049Z,70.30
2019-03-31T03:18:36.034Z,66.70
2019-03-31T03:19:36.051Z,73.20
2019-03-31T03:20:36.019Z,70.90
2019-03-31T03:21:35.997Z,72.40
2019-03-31T03:22:35.983Z,70.10
2019-03-31T03:23:35.974Z,69.70
2019-03-31T03:24:35.999Z,70.40
2019-03-31T03:25:35.958Z,71.20
2019-03-31T03:26:35.949Z,71.30
2019-03-31T03:27:35.943Z,71.70
2019-03-31T03:28:35.923Z,73.40
2019-03-31T03:29:35.940Z,72.80
2019-03-31T03:30:36.005Z,73.00
2019-03-31T03:31:35.920Z,71.30
2019-03-31T03:32:35.882Z,69.90
2019-03-31T03:33:35.862Z,69.70
2019-03-31T03:34:35.899Z,70.90
2019-03-31T03:35:35.849Z,70.80
2019-03-31T03:36:35.841Z,72.00
2019-03-31T03:37:35.831Z,73.70
2019-03-31T03:38:35.822Z,73.00
2019-03-31T03:39:35.839Z,73.30
2019-03-31T03:40:35.798Z,76.10
2019-03-31T03:41:35.797Z,74.50
2019-03-31T03:42:35.771Z,72.70
2019-03-31T03:43:53.602Z,75.70
2019-03-31T03:44:36.780Z,73.30
2019-03-31T03:45:35.756Z,74.70
2019-03-31T03:46:35.731Z,75.60
2019-03-31T03:47:35.713Z,74.30
2019-03-31T03:48:35.812Z,77.00
2019-03-31T03:49:36.645Z,76.30
2019-03-31T03:50:35.688Z,74.90
2019-03-31T03:51:35.672Z,74.70
2019-03-31T03:52:35.662Z,77.10
2019-03-31T03:53:35.652Z,73.70
2019-03-31T03:54:35.695Z,74.00
2019-03-31T03:55:35.637Z,72.90
2019-03-31T03:56:35.613Z,74.90
2019-03-31T03:57:35.616Z,74.80
2019-03-31T03:58:35.601Z,77.40
2019-03-31T03:59:35.638Z,75.40
2019-03-31T04:00:35.583Z,74.90
2019-03-31T04:01:35.567Z,74.40
2019-03-31T04:02:35.560Z,75.40
2019-03-31T04:03:35.552Z,75.00
2019-03-31T04:04:35.571Z,74.10
2019-03-31T04:05:35.521Z,73.50
2019-03-31T04:06:35.517Z,74.00
2019-03-31T04:07:35.504Z,73.20
2019-03-31T04:08:35.491Z,74.10
2019-03-31T04:09:35.505Z,70.20
2019-03-31T04:10:35.467Z,66.50
2019-03-31T04:11:35.466Z,70.30
2019-03-31T04:12:35.453Z,66.90
2019-03-31T04:13:35.457Z,72.00
2019-03-31T04:14:35.449Z,69.80
2019-03-31T04:15:35.414Z,68.00
2019-03-31T04:16:35.401Z,71.40
2019-03-31T04:17:35.406Z,72.30
2019-03-31T04:18:35.382Z,70.70
2019-03-31T04:19:35.414Z,71.10
2019-03-31T04:20:39.147Z,67.90
2019-03-31T04:21:35.350Z,70.40
2019-03-31T04:22:35.341Z,67.20
2019-03-31T04:23:35.340Z,69.60
2019-03-31T04:24:35.345Z,68.50
2019-03-31T04:25:35.314Z,68.60
2019-03-31T04:26:35.294Z,67.00
2019-03-31T04:27:35.282Z,69.20
2019-03-31T04:28:35.279Z,68.30
2019-03-31T04:29:35.305Z,70.90
2019-03-31T04:30:35.254Z,66.00
2019-03-31T04:31:35.256Z,66.50
2019-03-31T04:32:38.717Z,65.20
2019-03-31T04:33:50.450Z,69.50
2019-03-31T04:34:36.245Z,64.30
2019-03-31T04:35:35.210Z,65.40
2019-03-31T04:36:35.191Z,67.60
2019-03-31T04:37:35.182Z,69.80
2019-03-31T04:38:35.163Z,65.80
2019-03-31T04:39:35.203Z,67.20
2019-03-31T04:40:35.150Z,66.70
2019-03-31T04:41:35.149Z,66.80
2019-03-31T04:42:35.129Z,63.00
2019-03-31T04:43:35.119Z,68.00
2019-03-31T04:44:35.100Z,65.50
2019-03-31T04:45:35.116Z,65.60
2019-03-31T04:46:35.092Z,67.10
2019-03-31T04:47:35.073Z,64.10
2019-03-31T04:48:35.077Z,63.90
2019-03-31T04:49:35.044Z,65.40
2019-03-31T04:50:35.064Z,65.90
2019-03-31T04:51:35.030Z,64.20
2019-03-31T04:52:35.024Z,64.00
2019-03-31T04:53:35.001Z,66.30
2019-03-31T04:54:35.007Z,64.30
2019-03-31T04:55:35.015Z,62.90
2019-03-31T04:56:34.974Z,62.30
2019-03-31T04:57:34.974Z,64.80
2019-03-31T04:58:34.959Z,64.70
2019-03-31T04:59:34.940Z,62.50
2019-03-31T05:00:34.967Z,63.20
2019-03-31T05:01:34.914Z,64.60
2019-03-31T05:02:34.905Z,59.90
2019-03-31T05:03:34.907Z,62.00
2019-03-31T05:04:34.882Z,61.00
2019-03-31T05:05:34.914Z,60.90
2019-03-31T05:06:34.875Z,60.80
2019-03-31T05:07:34.849Z,60.90
2019-03-31T05:08:34.851Z,60.00
2019-03-31T05:09:34.832Z,60.40
2019-03-31T05:10:34.850Z,60.80
2019-03-31T05:11:34.811Z,68.50
2019-03-31T05:12:34.799Z,73.60
2019-03-31T05:13:34.789Z,62.10
2019-03-31T05:14:34.801Z,59.60
2019-03-31T05:15:34.799Z,61.50
2019-03-31T05:16:34.755Z,61.10
2019-03-31T05:17:35.935Z,64.70
2019-03-31T05:18:34.733Z,64.40
2019-03-31T05:19:34.763Z,62.90
2019-03-31T05:20:34.734Z,61.10
2019-03-31T05:21:34.710Z,59.70
2019-03-31T05:22:34.694Z,61.30
2019-03-31T05:23:34.679Z,59.60
2019-03-31T05:24:34.670Z,64.40
2019-03-31T05:25:44.157Z,57.60
2019-03-31T05:26:34.637Z,56.80
2019-03-31T05:27:34.620Z,54.80
2019-03-31T05:28:34.611Z,58.30
2019-03-31T05:29:34.606Z,57.40
2019-03-31T05:30:34.619Z,54.90
2019-03-31T05:31:34.582Z,56.50
2019-03-31T05:32:34.572Z,51.30
2019-03-31T05:33:34.556Z,55.40
2019-03-31T05:34:34.551Z,57.10
2019-03-31T05:35:34.563Z,54.90
2019-03-31T05:36:34.524Z,52.80
2019-03-31T05:37:34.516Z,50.20
2019-03-31T05:38:34.516Z,54.30
2019-03-31T05:39:34.495Z,54.50
2019-03-31T05:40:34.507Z,54.20
2019-03-31T05:41:34.472Z,53.30
2019-03-31T05:42:34.462Z,51.70
2019-03-31T05:43:34.447Z,55.90
2019-03-31T05:44:34.440Z,51.60
2019-03-31T05:45:34.457Z,53.80
2019-03-31T05:46:34.421Z,53.00
2019-03-31T05:47:34.412Z,53.30
2019-03-31T05:48:34.396Z,53.00
2019-03-31T05:49:34.389Z,52.80
2019-03-31T05:50:34.399Z,56.30
2019-03-31T05:51:34.365Z,53.70
2019-03-31T05:52:34.355Z,53.30
2019-03-31T05:53:34.350Z,53.00
2019-03-31T05:54:35.184Z,55.40
2019-03-31T05:55:34.348Z,54.60
2019-03-31T05:56:34.315Z,56.20
2019-03-31T05:57:34.302Z,56.60
2019-03-31T05:58:34.288Z,55.50
2019-03-31T05:59:34.275Z,54.10
2019-03-31T06:00:34.319Z,56.00
2019-03-31T06:01:34.261Z,54.90
2019-03-31T06:02:34.246Z,55.80
2019-03-31T06:03:34.266Z,54.90
2019-03-31T06:04:34.246Z,55.90
2019-03-31T06:05:34.434Z,56.10
2019-03-31T06:06:36.944Z,59.10
2019-03-31T06:07:34.294Z,58.70
2019-03-31T06:08:34.202Z,56.80
2019-03-31T06:09:34.314Z,59.90
2019-03-31T06:10:34.188Z,68.50
2019-03-31T06:11:34.233Z,64.60
2019-03-31T06:12:34.437Z,65.20
2019-03-31T06:13:34.128Z,63.60
2019-03-31T06:14:34.120Z,66.20
2019-03-31T06:15:34.160Z,67.80
2019-03-31T06:16:34.362Z,66.50
2019-03-31T06:17:34.083Z,67.00
2019-03-31T06:18:34.075Z,65.50
2019-03-31T06:19:34.066Z,70.60
2019-03-31T06:20:34.054Z,68.70
2019-03-31T06:21:34.068Z,76.90
2019-03-31T06:22:34.032Z,67.90
2019-03-31T06:23:34.021Z,72.10
2019-03-31T06:24:34.008Z,66.30
2019-03-31T06:25:34.002Z,68.80
2019-03-31T06:26:34.015Z,68.60
2019-03-31T06:27:33.979Z,69.70
2019-03-31T06:28:33.963Z,73.90
2019-03-31T06:29:33.951Z,69.10
2019-03-31T06:30:33.945Z,67.90
2019-03-31T06:31:33.959Z,67.90
2019-03-31T06:32:33.927Z,67.50
2019-03-31T06:33:33.920Z,72.50
2019-03-31T06:34:46.871Z,70.20
2019-03-31T06:35:34.933Z,68.10
2019-03-31T06:36:33.903Z,71.60
2019-03-31T06:37:33.873Z,69.00
2019-03-31T06:38:33.854Z,69.20
2019-03-31T06:39:34.315Z,72.80
2019-03-31T06:40:33.832Z,67.50
2019-03-31T06:41:33.856Z,64.10
2019-03-31T06:42:33.812Z,65.30
2019-03-31T06:43:33.804Z,65.40
2019-03-31T06:44:33.790Z,66.40
2019-03-31T06:45:33.780Z,72.70
2019-03-31T06:46:33.802Z,64.70
2019-03-31T06:47:33.770Z,65.00
2019-03-31T06:48:33.746Z,61.90
2019-03-31T06:49:33.739Z,61.90
2019-03-31T06:50:33.729Z,61.00
2019-03-31T06:51:33.741Z,59.20
2019-03-31T06:52:33.706Z,58.20
2019-03-31T06:53:33.695Z,58.20
2019-03-31T06:54:33.686Z,56.10
2019-03-31T06:55:33.674Z,58.20
2019-03-31T06:56:33.690Z,55.80
2019-03-31T06:57:33.652Z,56.10
2019-03-31T06:58:33.639Z,56.30
2019-03-31T06:59:33.628Z,52.70
2019-03-31T07:00:33.625Z,56.30
2019-03-31T07:01:33.635Z,55.50
2019-03-31T07:02:33.597Z,52.70
2019-03-31T07:03:33.586Z,51.50
2019-03-31T07:04:33.578Z,51.40
2019-03-31T07:05:33.566Z,47.60
2019-03-31T07:06:33.579Z,50.60
2019-03-31T07:07:33.540Z,47.30
2019-03-31T07:08:33.532Z,48.10
2019-03-31T07:09:33.538Z,45.30
2019-03-31T07:10:33.510Z,43.70
2019-03-31T07:11:33.542Z,43.60
2019-03-31T07:12:33.491Z,45.70
2019-03-31T07:13:33.479Z,46.50
2019-03-31T07:14:33.472Z,45.50
2019-03-31T07:15:33.458Z,43.80
2019-03-31T07:16:33.470Z,41.00
2019-03-31T07:17:33.439Z,42.60
2019-03-31T07:18:33.420Z,40.40
2019-03-31T07:19:33.419Z,40.50
2019-03-31T07:20:33.404Z,39.80
2019-03-31T07:21:33.436Z,37.40
2019-03-31T07:22:33.380Z,36.00
2019-03-31T07:23:33.366Z,36.50
2019-03-31T07:24:33.402Z,36.80
2019-03-31T07:25:33.349Z,33.40
2019-03-31T07:26:33.342Z,32.60
2019-03-31T07:27:33.351Z,31.00
2019-03-31T07:28:33.322Z,31.00
2019-03-31T07:29:33.303Z,32.10
2019-03-31T07:30:33.297Z,31.60
2019-03-31T07:31:33.283Z,30.10
2019-03-31T07:32:33.299Z,32.50
2019-03-31T07:33:33.263Z,30.70
2019-03-31T07:34:33.251Z,30.60
2019-03-31T07:35:33.252Z,30.50
2019-03-31T07:36:33.234Z,31.30
2019-03-31T07:37:46.378Z,32.00
2019-03-31T07:38:39.204Z,31.20
2019-03-31T07:39:34.534Z,31.80
2019-03-31T07:40:33.502Z,31.90
2019-03-31T07:41:33.400Z,30.60
2019-03-31T07:42:33.194Z,29.70
2019-03-31T07:43:33.152Z,29.80
2019-03-31T07:44:33.145Z,29.60
2019-03-31T07:45:33.134Z,29.70
2019-03-31T07:46:33.125Z,29.60
2019-03-31T07:47:33.140Z,28.10
2019-03-31T07:48:33.102Z,27.90
2019-03-31T07:49:33.088Z,27.20
2019-03-31T07:50:33.075Z,28.90
2019-03-31T07:51:33.070Z,29.20
2019-03-31T07:52:33.081Z,28.50
2019-03-31T07:53:33.046Z,29.90
2019-03-31T07:54:33.031Z,28.30
2019-03-31T07:55:33.020Z,29.20
2019-03-31T07:56:33.009Z,28.80
2019-03-31T07:57:33.054Z,28.10
2019-03-31T07:58:32.994Z,28.00
2019-03-31T07:59:33.031Z,26.90
2019-03-31T08:00:32.967Z,27.20
2019-03-31T08:01:32.957Z,27.40
2019-03-31T08:02:32.971Z,27.70
2019-03-31T08:03:32.933Z,25.30
2019-03-31T08:04:32.925Z,24.90
2019-03-31T08:05:37.410Z,25.10
2019-03-31T08:06:32.906Z,26.10
2019-03-31T08:07:32.917Z,24.50
2019-03-31T08:08:32.883Z,24.10
2019-03-31T08:09:32.869Z,23.10
2019-03-31T08:10:32.866Z,26.60
2019-03-31T08:11:32.852Z,24.90
2019-03-31T08:12:32.872Z,25.00
2019-03-31T08:13:32.823Z,25.30
2019-03-31T08:14:32.830Z,26.20
2019-03-31T08:15:32.810Z,21.70
2019-03-31T08:16:32.797Z,21.60
2019-03-31T08:17:32.824Z,20.70
2019-03-31T08:18:32.771Z,22.50
2019-03-31T08:19:32.764Z,21.70
2019-03-31T08:20:32.749Z,20.20
2019-03-31T08:21:32.742Z,21.20
2019-03-31T08:22:32.758Z,20.00
2019-03-31T08:23:32.721Z,21.00
2019-03-31T08:24:32.707Z,20.50
2019-03-31T08:25:32.697Z,21.80
2019-03-31T08:26:32.687Z,24.70
2019-03-31T08:27:32.709Z,22.10
2019-03-31T08:28:32.665Z,22.10
2019-03-31T08:29:32.655Z,20.50
2019-03-31T08:30:32.648Z,21.30
2019-03-31T08:31:32.638Z,21.10
2019-03-31T08:32:32.652Z,20.60
2019-03-31T08:33:32.612Z,20.60
2019-03-31T08:34:32.599Z,22.80
2019-03-31T08:35:46.213Z,22.40
2019-03-31T08:36:35.268Z,21.50
2019-03-31T08:37:32.674Z,21.00
2019-03-31T08:38:32.568Z,21.80
2019-03-31T08:39:32.554Z,21.10
2019-03-31T08:40:32.537Z,20.20
2019-03-31T08:41:32.526Z,20.50
2019-03-31T08:42:32.543Z,20.10
2019-03-31T08:43:32.503Z,18.60
2019-03-31T08:44:32.491Z,18.00
2019-03-31T08:45:32.480Z,19.10
2019-03-31T08:46:32.468Z,18.80
2019-03-31T08:47:32.488Z,19.50
2019-03-31T08:48:32.450Z,18.70
2019-03-31T08:49:32.438Z,19.40
2019-03-31T08:50:34.788Z,18.60
2019-03-31T08:51:32.496Z,17.60
2019-03-31T08:52:32.432Z,17.50
2019-03-31T08:53:32.398Z,16.50
2019-03-31T08:54:32.389Z,17.10
2019-03-31T08:55:32.377Z,16.70
2019-03-31T08:56:32.369Z,15.70
2019-03-31T08:57:32.379Z,16.60
2019-03-31T08:58:32.376Z,15.80
2019-03-31T08:59:32.327Z,15.80
2019-03-31T09:00:32.317Z,14.50
2019-03-31T09:01:32.302Z,13.10
2019-03-31T09:02:32.298Z,13.20
2019-03-31T09:03:32.321Z,12.10
2019-03-31T09:04:32.271Z,11.60
2019-03-31T09:05:32.265Z,11.60
2019-03-31T09:06:32.259Z,11.30
2019-03-31T09:07:32.242Z,11.60
2019-03-31T09:08:32.264Z,10.10
2019-03-31T09:09:32.222Z,9.10
2019-03-31T09:10:32.212Z,9.10
2019-03-31T09:11:32.195Z,8.90
2019-03-31T09:12:32.191Z,8.50
2019-03-31T09:13:32.208Z,9.40
2019-03-31T09:14:32.163Z,9.00
2019-03-31T09:15:32.161Z,8.40
2019-03-31T09:16:32.145Z,9.00
2019-03-31T09:17:32.131Z,8.90
2019-03-31T09:18:32.149Z,8.50
2019-03-31T09:19:32.117Z,9.50
2019-03-31T09:20:32.107Z,10.00
2019-03-31T09:21:32.088Z,7.70
2019-03-31T09:22:32.077Z,7.60
2019-03-31T09:23:32.093Z,7.10
2019-03-31T09:24:32.060Z,7.20
2019-03-31T09:25:32.045Z,7.50
2019-03-31T09:26:32.037Z,8.30
2019-03-31T09:27:32.029Z,8.10
2019-03-31T09:28:32.040Z,7.30
2019-03-31T09:29:32.016Z,7.00
2019-03-31T09:30:32.001Z,7.70
2019-03-31T09:31:31.981Z,7.60
2019-03-31T09:32:31.969Z,7.70
2019-03-31T09:33:31.987Z,7.40
2019-03-31T09:34:31.953Z,7.90
2019-03-31T09:35:31.943Z,6.90
2019-03-31T09:36:31.922Z,7.20
2019-03-31T09:37:31.925Z,6.60
2019-03-31T09:38:31.936Z,6.50
2019-03-31T09:39:31.902Z,5.90
2019-03-31T09:40:31.886Z,7.00
2019-03-31T09:41:31.875Z,7.70
2019-03-31T09:42:31.863Z,7.30
2019-03-31T09:43:31.877Z,7.40
2019-03-31T09:44:31.846Z,8.20
2019-03-31T09:45:31.832Z,7.20
2019-03-31T09:46:31.831Z,8.10
2019-03-31T09:47:31.813Z,8.50
2019-03-31T09:48:31.834Z,8.50
2019-03-31T09:49:31.789Z,8.50
2019-03-31T09:50:31.779Z,7.90
2019-03-31T09:51:31.774Z,8.20
2019-03-31T09:52:31.759Z,7.80
2019-03-31T09:53:31.776Z,7.40
2019-03-31T09:54:31.740Z,7.50
2019-03-31T09:55:31.728Z,7.70
2019-03-31T09:56:31.715Z,7.50
2019-03-31T09:57:31.710Z,7.50
2019-03-31T09:58:31.714Z,6.40
2019-03-31T09:59:31.684Z,6.80
2019-03-31T10:00:31.673Z,6.80
2019-03-31T10:01:31.662Z,7.60
2019-03-31T10:02:31.651Z,6.90
2019-03-31T10:03:31.675Z,7.30
2019-03-31T10:04:31.638Z,7.40
2019-03-31T10:05:31.618Z,7.50
2019-03-31T10:06:31.607Z,6.60
2019-03-31T10:07:31.601Z,6.60
2019-03-31T10:08:31.612Z,5.90
2019-03-31T10:09:31.578Z,6.10
2019-03-31T10:10:31.560Z,6.40
2019-03-31T10:11:31.562Z,6.30
2019-03-31T10:12:31.539Z,6.00
2019-03-31T10:13:31.558Z,6.30
2019-03-31T10:14:31.526Z,7.00
2019-03-31T10:15:31.507Z,8.10
2019-03-31T10:16:31.509Z,8.30
2019-03-31T10:17:31.488Z,6.90
2019-03-31T10:18:31.504Z,7.30
2019-03-31T10:19:31.462Z,6.60
2019-03-31T10:20:31.907Z,7.50
2019-03-31T10:21:31.446Z,7.20
2019-03-31T10:22:31.437Z,6.90
2019-03-31T10:23:31.444Z,7.70
2019-03-31T10:24:31.408Z,7.20
2019-03-31T10:25:31.404Z,7.40
2019-03-31T10:26:32.500Z,6.90
2019-03-31T10:27:31.376Z,7.70
2019-03-31T10:28:31.395Z,7.00
2019-03-31T10:29:31.352Z,7.30
2019-03-31T10:30:31.351Z,7.10
2019-03-31T10:31:31.336Z,7.30
2019-03-31T10:32:31.327Z,7.80
2019-03-31T10:33:31.337Z,7.70
2019-03-31T10:34:31.299Z,7.80
2019-03-31T10:35:31.291Z,7.00
2019-03-31T10:36:43.805Z,7.20
2019-03-31T10:37:32.269Z,7.20
2019-03-31T10:38:31.279Z,7.40
2019-03-31T10:39:31.245Z,7.40
2019-03-31T10:40:31.235Z,7.90
2019-03-31T10:41:31.228Z,8.50
2019-03-31T10:42:31.214Z,8.10
2019-03-31T10:43:31.221Z,8.10
2019-03-31T10:44:31.193Z,8.20
2019-03-31T10:45:31.173Z,8.20
2019-03-31T10:46:31.168Z,7.70
2019-03-31T10:47:31.157Z,7.80
2019-03-31T10:48:31.184Z,7.70
2019-03-31T10:49:31.144Z,8.10
2019-03-31T10:50:31.124Z,8.30
2019-03-31T10:51:31.113Z,7.90
2019-03-31T10:52:31.102Z,7.30
2019-03-31T10:53:31.088Z,7.80
2019-03-31T10:54:31.116Z,7.90
2019-03-31T10:55:31.104Z,7.60
2019-03-31T10:56:31.055Z,7.50
2019-03-31T10:57:31.046Z,7.70
2019-03-31T10:58:31.035Z,7.70
2019-03-31T10:59:31.048Z,7.60
2019-03-31T11:00:31.016Z,8.10
2019-03-31T11:01:31.003Z,7.80
2019-03-31T11:02:30.986Z,8.50
2019-03-31T11:03:33.081Z,8.40
2019-03-31T11:04:31.000Z,8.10
2019-03-31T11:05:30.967Z,7.80
2019-03-31T11:06:30.971Z,7.60
2019-03-31T11:07:30.936Z,8.30
2019-03-31T11:08:30.929Z,7.60
2019-03-31T11:09:34.249Z,7.90
2019-03-31T11:10:30.906Z,8.10
2019-03-31T11:11:30.893Z,8.40
2019-03-31T11:12:30.886Z,7.50
2019-03-31T11:13:30.876Z,7.70
2019-03-31T11:14:30.892Z,7.50
2019-03-31T11:15:30.857Z,8.10
2019-03-31T11:16:30.843Z,7.70
2019-03-31T11:17:30.832Z,8.40
2019-03-31T11:18:30.819Z,8.30
2019-03-31T11:19:30.908Z,8.00
2019-03-31T11:20:30.802Z,8.80
2019-03-31T11:21:30.797Z,7.60
2019-03-31T11:22:30.786Z,8.40
2019-03-31T11:23:30.768Z,8.90
2019-03-31T11:24:30.782Z,8.80
2019-03-31T11:25:41.768Z,8.40
2019-03-31T11:26:30.731Z,8.40
2019-03-31T11:27:30.726Z,8.40
2019-03-31T11:28:30.715Z,8.60
2019-03-31T11:29:30.727Z,8.70
2019-03-31T11:30:30.688Z,8.30
2019-03-31T11:31:30.751Z,8.70
2019-03-31T11:32:30.673Z,7.90
2019-03-31T11:33:30.657Z,9.00
2019-03-31T11:34:30.673Z,7.70
2019-03-31T11:35:30.637Z,7.60
2019-03-31T11:36:30.623Z,8.70
2019-03-31T11:37:30.614Z,8.70
2019-03-31T11:38:30.607Z,8.20
2019-03-31T11:39:30.624Z,8.30
2019-03-31T11:40:30.587Z,7.50
2019-03-31T11:41:30.587Z,8.20
2019-03-31T11:42:30.639Z,8.10
2019-03-31T11:43:30.555Z,8.20
2019-03-31T11:44:30.604Z,8.30
2019-03-31T11:45:30.535Z,8.60
2019-03-31T11:46:30.521Z,7.90
2019-03-31T11:47:30.503Z,8.80
2019-03-31T11:48:30.501Z,8.20
2019-03-31T11:49:30.517Z,8.60
2019-03-31T11:50:30.475Z,8.90
2019-03-31T11:51:30.465Z,8.80
2019-03-31T11:52:30.450Z,8.10
2019-03-31T11:53:30.453Z,8.00
2019-03-31T11:54:30.474Z,8.60
2019-03-31T11:55:30.423Z,7.50
2019-03-31T11:56:30.409Z,7.90
2019-03-31T11:57:30.397Z,7.40
2019-03-31T11:58:32.264Z,7.50
2019-03-31T11:59:30.452Z,8.20
2019-03-31T12:00:30.367Z,7.70
2019-03-31T12:01:30.361Z,8.00
2019-03-31T12:02:30.342Z,7.50
2019-03-31T12:03:31.186Z,8.40
2019-03-31T12:04:30.353Z,7.90
2019-03-31T12:05:30.311Z,8.20
2019-03-31T12:06:30.299Z,7.50
2019-03-31T12:07:30.288Z,7.80
2019-03-31T12:08:30.281Z,7.60
2019-03-31T12:09:30.296Z,7.90
2019-03-31T12:10:30.264Z,7.30
2019-03-31T12:11:30.248Z,7.10
2019-03-31T12:12:30.238Z,7.20
2019-03-31T12:13:30.235Z,7.00
2019-03-31T12:14:30.244Z,7.50
2019-03-31T12:15:30.205Z,7.80
2019-03-31T12:16:30.192Z,7.40
2019-03-31T12:17:30.185Z,7.10
2019-03-31T12:18:30.203Z,6.80
2019-03-31T12:19:30.197Z,7.00
2019-03-31T12:20:30.155Z,7.10
2019-03-31T12:21:30.141Z,6.70
2019-03-31T12:22:30.131Z,6.80
2019-03-31T12:23:30.116Z,6.60
2019-03-31T12:24:30.098Z,6.70
2019-03-31T12:25:30.130Z,6.70
2019-03-31T12:26:30.083Z,6.00
2019-03-31T12:27:30.071Z,5.60
2019-03-31T12:28:30.073Z,5.90
2019-03-31T12:29:30.047Z,6.10
2019-03-31T12:30:30.071Z,5.90
2019-03-31T12:31:30.028Z,5.80
2019-03-31T12:32:30.022Z,6.00
2019-03-31T12:33:30.063Z,5.80
2019-03-31T12:34:30.004Z,6.00
2019-03-31T12:35:30.023Z,6.30
2019-03-31T12:36:29.981Z,6.60
2019-03-31T12:37:41.593Z,7.00
2019-03-31T12:38:30.971Z,6.90
2019-03-31T12:39:29.952Z,7.50
2019-03-31T12:40:29.960Z,7.00
2019-03-31T12:41:29.923Z,7.50
2019-03-31T12:42:29.911Z,7.10
2019-03-31T12:43:29.907Z,7.00
2019-03-31T12:44:29.896Z,7.70
2019-03-31T12:45:29.926Z,6.60
2019-03-31T12:46:29.868Z,7.10
2019-03-31T12:47:29.863Z,7.50
2019-03-31T12:48:31.654Z,7.60
2019-03-31T12:49:29.841Z,7.40
2019-03-31T12:50:29.868Z,7.70
2019-03-31T12:51:29.854Z,7.20
2019-03-31T12:52:29.823Z,7.40
2019-03-31T12:53:29.795Z,7.70
2019-03-31T12:54:29.787Z,7.30
2019-03-31T12:55:29.797Z,7.80
2019-03-31T12:56:29.767Z,7.80
2019-03-31T12:57:29.808Z,7.70
2019-03-31T12:58:29.779Z,7.70
2019-03-31T12:59:29.736Z,7.50
2019-03-31T13:00:29.773Z,7.90